createdAt,value
2016-04-02T00:00:03.470Z,0
2016-04-02T00:01:03.505Z,0
2016-04-02T00:02:03.523Z,0
2016-04-02T00:03:03.572Z,0
2016-04-02T00:04:03.779Z,0
2016-04-02T00:05:03.577Z,0
2016-04-02T00:06:03.565Z,0
2016-04-02T00:07:03.599Z,0
2016-04-02T00:08:03.601Z,0
2016-04-02T00:09:03.620Z,0
2016-04-02T00:10:03.653Z,0
2016-04-02T00:11:03.673Z,0
2016-04-02T00:12:03.675Z,0
2016-04-02T00:13:03.678Z,0
2016-04-02T00:14:03.696Z,0
2016-04-02T00:15:03.714Z,0
2016-04-02T00:16:03.732Z,0
2016-04-02T00:17:03.892Z,0
2016-04-02T00:18:03.769Z,0
2016-04-02T00:19:03.819Z,0
2016-04-02T00:20:03.774Z,0
2016-04-02T00:21:03.793Z,0
2016-04-02T00:22:03.795Z,0
2016-04-02T00:23:03.830Z,0
2016-04-02T00:24:03.864Z,0
2016-04-02T00:25:03.866Z,0
2016-04-02T00:26:03.869Z,0
2016-04-02T00:27:03.887Z,0
2016-04-02T00:28:03.906Z,0
2016-04-02T00:29:03.924Z,0
2016-04-02T00:30:03.957Z,0
2016-04-02T00:31:03.976Z,0
2016-04-02T00:32:03.963Z,0
2016-04-02T00:33:03.996Z,0
2016-04-02T00:34:04.030Z,0
2016-04-02T00:35:04.002Z,0
2016-04-02T00:36:04.010Z,0
2016-04-02T00:37:04.043Z,0
2016-04-02T00:38:04.062Z,0
2016-04-02T00:39:04.096Z,0
2016-04-02T00:40:04.083Z,0
2016-04-02T00:41:04.071Z,0
2016-04-02T00:42:04.104Z,0
2016-04-02T00:43:04.106Z,0
2016-04-02T00:44:04.173Z,0
2016-04-02T00:45:04.159Z,0
2016-04-02T00:46:04.225Z,0
2016-04-02T00:47:04.195Z,0
2016-04-02T00:48:04.198Z,0
2016-04-02T00:49:04.264Z,0
2016-04-02T00:50:04.219Z,0
2016-04-02T00:51:04.238Z,0
2016-04-02T00:52:04.287Z,0
2016-04-02T00:53:04.289Z,0
2016-04-02T00:54:04.292Z,0
2016-04-02T00:55:04.295Z,0
2016-04-02T00:56:04.329Z,0
2016-04-02T00:57:04.316Z,0
2016-04-02T00:58:04.334Z,0
2016-04-02T00:59:04.353Z,0
2016-04-02T01:00:04.418Z,0
2016-04-02T01:01:04.405Z,0
2016-04-02T01:02:04.424Z,0
2016-04-02T01:03:04.410Z,0
2016-04-02T01:04:04.460Z,0
2016-04-02T01:05:04.447Z,0
2016-04-02T01:06:04.497Z,0
2016-04-02T01:07:04.484Z,0
2016-04-02T01:08:04.501Z,0
2016-04-02T01:09:04.552Z,0
2016-04-02T01:10:04.586Z,0
2016-04-02T01:11:04.557Z,0
2016-04-02T01:12:04.591Z,0
2016-04-02T01:13:04.578Z,0
2016-04-02T01:14:04.581Z,0
2016-04-02T01:15:04.583Z,0
2016-04-02T01:16:04.618Z,0
2016-04-02T01:17:04.604Z,0
2016-04-02T01:18:04.669Z,0
2016-04-02T01:19:04.813Z,0
2016-04-02T01:20:04.691Z,0
2016-04-02T01:21:04.678Z,0
2016-04-02T01:22:04.743Z,0
2016-04-02T01:23:04.715Z,0
2016-04-02T01:24:04.748Z,0
2016-04-02T01:25:04.735Z,0
2016-04-02T01:26:04.785Z,0
2016-04-02T01:27:04.850Z,0
2016-04-02T01:28:04.775Z,0
2016-04-02T01:29:04.825Z,0
2016-04-02T01:30:04.796Z,0
2016-04-02T01:31:04.877Z,0
2016-04-02T01:32:04.849Z,0
2016-04-02T01:33:04.851Z,0
2016-04-02T01:34:04.947Z,0
2016-04-02T01:35:04.888Z,0
2016-04-02T01:36:04.921Z,0
2016-04-02T01:37:04.955Z,0
2016-04-02T01:38:04.990Z,0
2016-04-02T01:39:04.992Z,0
2016-04-02T01:40:04.948Z,0
2016-04-02T01:41:05.060Z,0
2016-04-02T01:42:04.984Z,0
2016-04-02T01:43:05.049Z,0
2016-04-02T01:44:05.037Z,0
2016-04-02T01:45:05.023Z,0
2016-04-02T01:46:05.089Z,0
2016-04-02T01:47:05.092Z,0
2016-04-02T01:48:05.094Z,0
2016-04-02T01:49:05.206Z,0
2016-04-02T01:50:05.130Z,0
2016-04-02T01:51:05.133Z,0
2016-04-02T01:52:05.167Z,0
2016-04-02T01:53:05.139Z,0
2016-04-02T01:54:05.172Z,0
2016-04-02T01:55:05.191Z,0
2016-04-02T01:56:05.187Z,0
2016-04-02T01:57:05.209Z,0
2016-04-02T01:58:05.184Z,0
2016-04-02T01:59:05.238Z,0
2016-04-02T02:00:05.182Z,0
2016-04-02T02:01:05.209Z,0
2016-04-02T02:02:05.223Z,0
2016-04-02T02:03:05.222Z,0
2016-04-02T02:04:05.298Z,0
2016-04-02T02:05:05.266Z,0
2016-04-02T02:06:05.266Z,0
2016-04-02T02:07:05.282Z,0
2016-04-02T02:08:05.565Z,0
2016-04-02T02:09:05.294Z,0
2016-04-02T02:10:05.326Z,0
2016-04-02T02:11:05.313Z,0
2016-04-02T02:12:05.363Z,0
2016-04-02T02:13:05.349Z,0
2016-04-02T02:14:05.398Z,0
2016-04-02T02:15:05.362Z,0
2016-04-02T02:16:05.396Z,0
2016-04-02T02:17:05.429Z,0
2016-04-02T02:18:05.431Z,0
2016-04-02T02:19:05.058Z,0
2016-04-02T02:20:05.482Z,0
2016-04-02T02:21:05.454Z,0
2016-04-02T02:22:05.519Z,0
2016-04-02T02:23:05.522Z,0
2016-04-02T02:24:05.525Z,0
2016-04-02T02:25:05.527Z,0
2016-04-02T02:26:05.545Z,0
2016-04-02T02:27:05.565Z,0
2016-04-02T02:28:05.582Z,0
2016-04-02T02:29:05.585Z,0
2016-04-02T02:30:05.587Z,0
2016-04-02T02:31:05.622Z,0
2016-04-02T02:32:05.625Z,0
2016-04-02T02:33:05.659Z,0
2016-04-02T02:34:05.740Z,0
2016-04-02T02:35:05.693Z,0
2016-04-02T02:36:05.695Z,0
2016-04-02T02:37:05.745Z,0
2016-04-02T02:38:05.717Z,0
2016-04-02T02:39:05.578Z,0
2016-04-02T02:40:05.737Z,0
2016-04-02T02:41:05.771Z,0
2016-04-02T02:42:05.775Z,0
2016-04-02T02:43:05.808Z,0
2016-04-02T02:44:05.811Z,0
2016-04-02T02:45:05.814Z,0
2016-04-02T02:46:05.847Z,0
2016-04-02T02:47:05.835Z,0
2016-04-02T02:48:05.900Z,0
2016-04-02T02:49:05.746Z,0
2016-04-02T02:50:05.905Z,0
2016-04-02T02:51:05.923Z,0
2016-04-02T02:52:05.941Z,0
2016-04-02T02:53:05.929Z,0
2016-04-02T02:54:05.978Z,0
2016-04-02T02:55:05.965Z,0
2016-04-02T02:56:05.999Z,0
2016-04-02T02:57:06.002Z,0
2016-04-02T02:58:06.021Z,0
2016-04-02T02:59:06.023Z,0
2016-04-02T03:00:06.010Z,0
2016-04-02T03:01:05.887Z,0
2016-04-02T03:02:06.062Z,0
2016-04-02T03:03:06.096Z,0
2016-04-02T03:04:06.067Z,0
2016-04-02T03:05:06.134Z,0
2016-04-02T03:06:06.136Z,0
2016-04-02T03:07:06.170Z,0
2016-04-02T03:08:06.142Z,0
2016-04-02T03:09:06.176Z,0
2016-04-02T03:10:06.178Z,0
2016-04-02T03:11:06.212Z,0
2016-04-02T03:12:06.230Z,0
2016-04-02T03:13:06.201Z,0
2016-04-02T03:14:06.251Z,0
2016-04-02T03:15:06.238Z,0
2016-04-02T03:16:06.288Z,0
2016-04-02T03:17:06.133Z,0
2016-04-02T03:18:06.355Z,0
2016-04-02T03:19:06.905Z,0
2016-04-02T03:20:06.361Z,0
2016-04-02T03:21:06.364Z,0
2016-04-02T03:22:06.350Z,0
2016-04-02T03:23:06.353Z,0
2016-04-02T03:24:06.387Z,0
2016-04-02T03:25:06.405Z,0
2016-04-02T03:26:06.424Z,0
2016-04-02T03:27:06.442Z,0
2016-04-02T03:28:06.460Z,0
2016-04-02T03:29:06.635Z,0
2016-04-02T03:30:06.482Z,0
2016-04-02T03:31:06.469Z,0
2016-04-02T03:32:06.565Z,0
2016-04-02T03:33:06.521Z,0
2016-04-02T03:34:06.945Z,0
2016-04-02T03:35:06.620Z,0
2016-04-02T03:36:06.576Z,0
2016-04-02T03:37:06.610Z,0
2016-04-02T03:38:20.740Z,0
2016-04-02T03:39:06.615Z,0
2016-04-02T03:40:06.633Z,0
2016-04-02T03:41:06.683Z,0
2016-04-02T03:42:06.670Z,0
2016-04-02T03:43:06.689Z,0
2016-04-02T03:44:06.660Z,0
2016-04-02T03:45:05.944Z,0
2016-04-02T03:46:06.697Z,0
2016-04-02T03:47:06.715Z,0
2016-04-02T03:48:05.983Z,0
2016-04-02T03:49:06.923Z,0
2016-04-02T03:50:06.816Z,0
2016-04-02T03:51:06.850Z,0
2016-04-02T03:52:06.774Z,0
2016-04-02T03:53:06.824Z,0
2016-04-02T03:54:06.874Z,0
2016-04-02T03:55:06.829Z,0
2016-04-02T03:56:06.863Z,0
2016-04-02T03:57:06.866Z,0
2016-04-02T03:58:06.869Z,0
2016-04-02T03:59:06.904Z,0
2016-04-02T04:00:06.906Z,0
2016-04-02T04:01:06.909Z,0
2016-04-02T04:02:06.989Z,0
2016-04-02T04:03:07.023Z,0
2016-04-02T04:04:07.042Z,0
2016-04-02T04:05:06.998Z,0
2016-04-02T04:06:07.001Z,0
2016-04-02T04:07:07.019Z,0
2016-04-02T04:08:07.037Z,0
2016-04-02T04:09:07.009Z,0
2016-04-02T04:10:07.059Z,0
2016-04-02T04:11:07.076Z,0
2016-04-02T04:12:07.095Z,0
2016-04-02T04:13:07.081Z,0
2016-04-02T04:14:07.084Z,0
2016-04-02T04:15:07.134Z,0
2016-04-02T04:16:07.120Z,0
2016-04-02T04:17:07.155Z,0
2016-04-02T04:18:07.172Z,0
2016-04-02T04:19:07.113Z,0
2016-04-02T04:20:07.178Z,0
2016-04-02T04:21:07.197Z,0
2016-04-02T04:22:07.184Z,0
2016-04-02T04:23:07.218Z,0
2016-04-02T04:24:07.252Z,0
2016-04-02T04:25:07.255Z,0
2016-04-02T04:26:07.257Z,0
2016-04-02T04:27:07.291Z,0
2016-04-02T04:28:07.293Z,0
2016-04-02T04:29:07.171Z,0
2016-04-02T04:30:07.345Z,0
2016-04-02T04:31:07.379Z,0
2016-04-02T04:32:07.335Z,0
2016-04-02T04:33:07.401Z,0
2016-04-02T04:34:07.418Z,0
2016-04-02T04:35:07.438Z,0
2016-04-02T04:36:07.393Z,0
2016-04-02T04:37:07.287Z,0
2016-04-02T04:38:07.415Z,0
2016-04-02T04:39:07.479Z,0
2016-04-02T04:40:07.451Z,0
2016-04-02T04:41:07.469Z,0
2016-04-02T04:42:07.503Z,0
2016-04-02T04:43:07.506Z,0
2016-04-02T04:44:07.540Z,0
2016-04-02T04:45:07.387Z,0
2016-04-02T04:46:07.576Z,0
2016-04-02T04:47:07.548Z,0
2016-04-02T04:48:07.629Z,0
2016-04-02T04:49:07.881Z,0
2016-04-02T04:50:07.603Z,0
2016-04-02T04:51:07.621Z,0
2016-04-02T04:52:07.639Z,0
2016-04-02T04:53:07.642Z,0
2016-04-02T04:54:07.676Z,0
2016-04-02T04:55:07.663Z,0
2016-04-02T04:56:07.682Z,0
2016-04-02T04:57:07.699Z,0
2016-04-02T04:58:07.703Z,0
2016-04-02T04:59:07.736Z,0
2016-04-02T05:00:07.771Z,0
2016-04-02T05:01:07.774Z,0
2016-04-02T05:02:07.823Z,0
2016-04-02T05:03:07.794Z,0
2016-04-02T05:04:07.937Z,0
2016-04-02T05:05:07.815Z,0
2016-04-02T05:06:07.834Z,0
2016-04-02T05:07:07.851Z,0
2016-04-02T05:08:07.870Z,0
2016-04-02T05:09:07.872Z,0
2016-04-02T05:10:07.890Z,0
2016-04-02T05:11:07.893Z,0
2016-04-02T05:12:07.927Z,0
2016-04-02T05:13:07.931Z,0
2016-04-02T05:14:07.964Z,0
2016-04-02T05:15:07.967Z,0
2016-04-02T05:16:07.970Z,0
2016-04-02T05:17:07.972Z,5
2016-04-02T05:18:08.022Z,5
2016-04-02T05:19:08.071Z,5
2016-04-02T05:20:07.886Z,5
2016-04-02T05:21:08.061Z,5
2016-04-02T05:22:08.033Z,5
2016-04-02T05:23:08.114Z,5
2016-04-02T05:24:08.101Z,5
2016-04-02T05:25:08.135Z,5
2016-04-02T05:26:08.106Z,5
2016-04-02T05:27:08.140Z,5
2016-04-02T05:28:08.143Z,5
2016-04-02T05:29:08.192Z,5
2016-04-02T05:30:08.179Z,5
2016-04-02T05:31:08.166Z,10
2016-04-02T05:32:08.184Z,10
2016-04-02T05:33:08.218Z,10
2016-04-02T05:34:08.330Z,10
2016-04-02T05:35:08.239Z,10
2016-04-02T05:36:08.273Z,10
2016-04-02T05:37:08.260Z,10
2016-04-02T05:38:08.310Z,10
2016-04-02T05:39:08.298Z,10
2016-04-02T05:40:08.315Z,10
2016-04-02T05:41:08.365Z,10
2016-04-02T05:42:08.336Z,10
2016-04-02T05:43:08.354Z,10
2016-04-02T05:44:08.389Z,10
2016-04-02T05:45:08.391Z,10
2016-04-02T05:46:08.394Z,10
2016-04-02T05:47:08.427Z,10
2016-04-02T05:48:08.430Z,10
2016-04-02T05:49:08.511Z,15
2016-04-02T05:50:08.452Z,15
2016-04-02T05:51:08.470Z,15
2016-04-02T05:52:08.520Z,15
2016-04-02T05:53:08.522Z,15
2016-04-02T05:54:08.509Z,15
2016-04-02T05:55:08.372Z,15
2016-04-02T05:56:08.546Z,15
2016-04-02T05:57:08.549Z,15
2016-04-02T05:58:08.582Z,15
2016-04-02T05:59:08.585Z,15
2016-04-02T06:00:08.604Z,15
2016-04-02T06:01:08.622Z,15
2016-04-02T06:02:08.625Z,15
2016-04-02T06:03:08.643Z,15
2016-04-02T06:04:08.677Z,20
2016-04-02T06:05:08.680Z,20
2016-04-02T06:06:08.682Z,20
2016-04-02T06:07:08.732Z,15
2016-04-02T06:08:08.687Z,15
2016-04-02T06:09:08.721Z,15
2016-04-02T06:10:08.756Z,20
2016-04-02T06:11:08.758Z,20
2016-04-02T06:12:08.823Z,20
2016-04-02T06:13:08.794Z,20
2016-04-02T06:14:08.812Z,20
2016-04-02T06:15:08.847Z,20
2016-04-02T06:16:08.897Z,20
2016-04-02T06:17:08.868Z,20
2016-04-02T06:18:08.856Z,20
2016-04-02T06:19:09.092Z,20
2016-04-02T06:20:08.908Z,20
2016-04-02T06:21:08.800Z,20
2016-04-02T06:22:09.006Z,20
2016-04-02T06:23:08.931Z,20
2016-04-02T06:24:08.949Z,25
2016-04-02T06:25:08.952Z,25
2016-04-02T06:26:09.016Z,25
2016-04-02T06:27:09.035Z,25
2016-04-02T06:28:09.007Z,25
2016-04-02T06:29:09.024Z,25
2016-04-02T06:30:08.887Z,25
2016-04-02T06:31:08.874Z,25
2016-04-02T06:32:09.032Z,25
2016-04-02T06:33:09.068Z,25
2016-04-02T06:34:09.195Z,30
2016-04-02T06:35:09.104Z,30
2016-04-02T06:36:09.153Z,30
2016-04-02T06:37:09.124Z,30
2016-04-02T06:38:09.127Z,35
2016-04-02T06:39:09.162Z,30
2016-04-02T06:40:09.165Z,30
2016-04-02T06:41:09.183Z,30
2016-04-02T06:42:09.217Z,30
2016-04-02T06:43:09.220Z,30
2016-04-02T06:44:09.254Z,30
2016-04-02T06:45:09.287Z,30
2016-04-02T06:46:09.306Z,30
2016-04-02T06:47:09.323Z,30
2016-04-02T06:48:09.311Z,35
2016-04-02T06:49:09.470Z,35
2016-04-02T06:50:09.316Z,35
2016-04-02T06:51:09.319Z,30
2016-04-02T06:52:09.336Z,30
2016-04-02T06:53:09.402Z,30
2016-04-02T06:54:09.358Z,30
2016-04-02T06:55:09.377Z,35
2016-04-02T06:56:09.426Z,35
2016-04-02T06:57:09.507Z,40
2016-04-02T06:58:09.463Z,40
2016-04-02T06:59:09.449Z,40
2016-04-02T07:00:09.483Z,40
2016-04-02T07:01:09.471Z,40
2016-04-02T07:02:09.551Z,40
2016-04-02T07:03:09.507Z,40
2016-04-02T07:04:09.603Z,40
2016-04-02T07:05:09.590Z,45
2016-04-02T07:06:09.546Z,45
2016-04-02T07:07:09.565Z,45
2016-04-02T07:08:09.645Z,45
2016-04-02T07:09:09.602Z,45
2016-04-02T07:10:09.651Z,45
2016-04-02T07:11:09.638Z,45
2016-04-02T07:12:09.626Z,45
2016-04-02T07:13:09.643Z,45
2016-04-02T07:14:09.662Z,45
2016-04-02T07:15:09.681Z,45
2016-04-02T07:16:09.714Z,45
2016-04-02T07:17:09.732Z,45
2016-04-02T07:18:09.704Z,45
2016-04-02T07:19:09.816Z,45
2016-04-02T07:20:09.756Z,45
2016-04-02T07:21:09.775Z,45
2016-04-02T07:22:09.777Z,50
2016-04-02T07:23:09.795Z,50
2016-04-02T07:24:09.830Z,55
2016-04-02T07:25:09.878Z,55
2016-04-02T07:26:09.866Z,60
2016-04-02T07:27:09.868Z,60
2016-04-02T07:28:09.855Z,60
2016-04-02T07:29:09.921Z,60
2016-04-02T07:30:09.892Z,60
2016-04-02T07:31:09.911Z,65
2016-04-02T07:32:09.929Z,65
2016-04-02T07:33:09.932Z,60
2016-04-02T07:34:10.402Z,55
2016-04-02T07:35:09.952Z,55
2016-04-02T07:36:10.002Z,55
2016-04-02T07:37:09.990Z,55
2016-04-02T07:38:10.023Z,55
2016-04-02T07:39:10.026Z,55
2016-04-02T07:40:10.028Z,50
2016-04-02T07:41:10.062Z,55
2016-04-02T07:42:10.065Z,55
2016-04-02T07:43:10.084Z,55
2016-04-02T07:44:10.180Z,55
2016-04-02T07:45:10.042Z,60
2016-04-02T07:46:10.139Z,60
2016-04-02T07:47:10.141Z,60
2016-04-02T07:48:10.190Z,65
2016-04-02T07:49:10.334Z,65
2016-04-02T07:50:10.195Z,70
2016-04-02T07:51:10.278Z,75
2016-04-02T07:52:10.217Z,75
2016-04-02T07:53:10.236Z,80
2016-04-02T07:54:10.114Z,80
2016-04-02T07:55:10.288Z,80
2016-04-02T07:56:10.291Z,85
2016-04-02T07:57:10.308Z,85
2016-04-02T07:58:10.296Z,90
2016-04-02T07:59:10.344Z,100
2016-04-02T08:00:10.347Z,110
2016-04-02T08:01:10.366Z,105
2016-04-02T08:02:10.260Z,120
2016-04-02T08:03:10.388Z,130
2016-04-02T08:04:10.594Z,120
2016-04-02T08:05:10.440Z,140
2016-04-02T08:06:10.443Z,140
2016-04-02T08:07:10.445Z,140
2016-04-02T08:08:10.479Z,135
2016-04-02T08:09:10.496Z,120
2016-04-02T08:10:10.734Z,115
2016-04-02T08:11:10.549Z,135
2016-04-02T08:12:10.536Z,145
2016-04-02T08:13:10.554Z,140
2016-04-02T08:14:10.417Z,140
2016-04-02T08:15:10.576Z,135
2016-04-02T08:16:10.610Z,145
2016-04-02T08:17:10.628Z,120
2016-04-02T08:18:10.631Z,105
2016-04-02T08:19:10.945Z,100
2016-04-02T08:20:10.667Z,95
2016-04-02T08:21:10.686Z,90
2016-04-02T08:22:10.704Z,90
2016-04-02T08:23:10.723Z,90
2016-04-02T08:24:10.741Z,95
2016-04-02T08:25:10.759Z,90
2016-04-02T08:26:10.792Z,95
2016-04-02T08:27:10.811Z,105
2016-04-02T08:28:10.797Z,100
2016-04-02T08:29:10.863Z,105
2016-04-02T08:30:10.866Z,105
2016-04-02T08:31:10.838Z,130
2016-04-02T08:32:10.747Z,135
2016-04-02T08:33:10.874Z,135
2016-04-02T08:34:10.939Z,150
2016-04-02T08:35:10.941Z,150
2016-04-02T08:36:10.944Z,150
2016-04-02T08:37:10.978Z,170
2016-04-02T08:38:10.996Z,160
2016-04-02T08:39:11.015Z,135
2016-04-02T08:40:11.049Z,125
2016-04-02T08:41:11.020Z,130
2016-04-02T08:42:11.040Z,155
2016-04-02T08:43:11.042Z,155
2016-04-02T08:44:11.076Z,150
2016-04-02T08:45:11.093Z,180
2016-04-02T08:46:11.128Z,190
2016-04-02T08:47:11.115Z,220
2016-04-02T08:48:11.181Z,210
2016-04-02T08:49:11.058Z,205
2016-04-02T08:50:11.170Z,220
2016-04-02T08:51:11.234Z,250
2016-04-02T08:52:11.222Z,335
2016-04-02T08:53:11.240Z,300
2016-04-02T08:54:11.258Z,280
2016-04-02T08:55:11.261Z,305
2016-04-02T08:56:11.327Z,300
2016-04-02T08:57:11.298Z,260
2016-04-02T08:58:11.348Z,265
2016-04-02T08:59:11.350Z,240
2016-04-02T09:00:11.384Z,270
2016-04-02T09:01:11.386Z,300
2016-04-02T09:02:11.405Z,310
2016-04-02T09:03:11.423Z,305
2016-04-02T09:04:11.411Z,335
2016-04-02T09:05:11.460Z,335
2016-04-02T09:06:11.494Z,395
2016-04-02T09:07:11.481Z,480
2016-04-02T09:08:11.515Z,560
2016-04-02T09:09:11.548Z,395
2016-04-02T09:10:11.551Z,620
2016-04-02T09:11:11.570Z,550
2016-04-02T09:12:11.604Z,390
2016-04-02T09:13:11.607Z,490
2016-04-02T09:14:11.656Z,480
2016-04-02T09:15:11.674Z,400
2016-04-02T09:16:11.693Z,360
2016-04-02T09:17:11.712Z,355
2016-04-02T09:18:11.699Z,345
2016-04-02T09:19:11.842Z,325
2016-04-02T09:20:11.767Z,280
2016-04-02T09:21:11.800Z,285
2016-04-02T09:22:11.787Z,285
2016-04-02T09:23:11.820Z,290
2016-04-02T09:24:11.855Z,280
2016-04-02T09:25:11.889Z,280
2016-04-02T09:26:11.876Z,285
2016-04-02T09:27:11.973Z,285
2016-04-02T09:28:11.944Z,285
2016-04-02T09:29:11.962Z,280
2016-04-02T09:30:11.996Z,295
2016-04-02T09:31:12.014Z,305
2016-04-02T09:32:12.016Z,300
2016-04-02T09:33:12.066Z,305
2016-04-02T09:34:12.194Z,395
2016-04-02T09:35:12.103Z,415
2016-04-02T09:36:12.106Z,430
2016-04-02T09:37:12.140Z,425
2016-04-02T09:38:12.174Z,390
2016-04-02T09:39:12.207Z,265
2016-04-02T09:40:12.227Z,240
2016-04-02T09:41:12.244Z,235
2016-04-02T09:42:12.263Z,240
2016-04-02T09:43:12.281Z,230
2016-04-02T09:44:12.299Z,225
2016-04-02T09:45:12.318Z,200
2016-04-02T09:46:12.351Z,215
2016-04-02T09:47:12.385Z,180
2016-04-02T09:48:12.403Z,185
2016-04-02T09:49:12.532Z,190
2016-04-02T09:50:12.456Z,185
2016-04-02T09:51:12.459Z,200
2016-04-02T09:52:12.477Z,255
2016-04-02T09:53:12.511Z,220
2016-04-02T09:54:12.545Z,185
2016-04-02T09:55:12.547Z,195
2016-04-02T09:56:12.581Z,210
2016-04-02T09:57:12.616Z,245
2016-04-02T09:58:12.619Z,255
2016-04-02T09:59:12.684Z,255
2016-04-02T10:00:12.670Z,265
2016-04-02T10:01:12.720Z,270
2016-04-02T10:02:12.738Z,250
2016-04-02T10:03:12.757Z,245
2016-04-02T10:04:12.900Z,225
2016-04-02T10:05:12.794Z,210
2016-04-02T10:06:12.812Z,205
2016-04-02T10:07:12.846Z,205
2016-04-02T10:08:12.864Z,225
2016-04-02T10:09:12.898Z,230
2016-04-02T10:10:12.901Z,250
2016-04-02T10:11:12.934Z,245
2016-04-02T10:12:12.952Z,240
2016-04-02T10:13:12.221Z,215
2016-04-02T10:14:13.005Z,225
2016-04-02T10:15:13.008Z,225
2016-04-02T10:16:13.073Z,230
2016-04-02T10:17:13.076Z,205
2016-04-02T10:18:13.140Z,220
2016-04-02T10:19:13.237Z,210
2016-04-02T10:20:13.145Z,205
2016-04-02T10:21:13.180Z,180
2016-04-02T10:22:13.198Z,165
2016-04-02T10:23:13.217Z,150
2016-04-02T10:24:13.251Z,145
2016-04-02T10:25:13.269Z,140
2016-04-02T10:26:13.287Z,140
2016-04-02T10:27:13.367Z,145
2016-04-02T10:28:13.339Z,145
2016-04-02T10:29:13.342Z,140
2016-04-02T10:30:13.376Z,135
2016-04-02T10:31:13.411Z,130
2016-04-02T10:32:13.428Z,125
2016-04-02T10:33:13.494Z,130
2016-04-02T10:34:13.902Z,130
2016-04-02T10:35:13.530Z,130
2016-04-02T10:36:13.532Z,125
2016-04-02T10:37:13.535Z,125
2016-04-02T10:38:13.585Z,125
2016-04-02T10:39:13.588Z,125
2016-04-02T10:40:13.607Z,120
2016-04-02T10:41:13.655Z,120
2016-04-02T10:42:13.643Z,120
2016-04-02T10:43:13.708Z,120
2016-04-02T10:44:13.695Z,120
2016-04-02T10:45:13.713Z,120
2016-04-02T10:46:13.747Z,125
2016-04-02T10:47:13.781Z,125
2016-04-02T10:48:13.799Z,125
2016-04-02T10:49:13.756Z,120
2016-04-02T10:50:13.852Z,120
2016-04-02T10:51:13.854Z,120
2016-04-02T10:52:13.889Z,120
2016-04-02T10:53:13.906Z,115
2016-04-02T10:54:13.941Z,115
2016-04-02T10:55:13.943Z,115
2016-04-02T10:56:13.993Z,115
2016-04-02T10:57:14.043Z,115
2016-04-02T10:58:14.014Z,115
2016-04-02T10:59:14.064Z,115
2016-04-02T11:00:14.081Z,115
2016-04-02T11:01:14.084Z,115
2016-04-02T11:02:14.133Z,115
2016-04-02T11:03:14.142Z,115
2016-04-02T11:04:14.258Z,115
2016-04-02T11:05:14.187Z,120
2016-04-02T11:06:14.164Z,120
2016-04-02T11:07:14.186Z,120
2016-04-02T11:08:14.184Z,120
2016-04-02T11:09:14.214Z,125
2016-04-02T11:10:14.228Z,125
2016-04-02T11:11:14.242Z,125
2016-04-02T11:12:14.272Z,125
2016-04-02T11:13:14.273Z,130
2016-04-02T11:14:14.289Z,130
2016-04-02T11:15:14.337Z,135
2016-04-02T11:16:14.354Z,135
2016-04-02T11:17:14.355Z,140
2016-04-02T11:18:14.374Z,150
2016-04-02T11:19:14.486Z,155
2016-04-02T11:20:14.457Z,160
2016-04-02T11:21:14.443Z,160
2016-04-02T11:22:14.492Z,170
2016-04-02T11:23:14.495Z,185
2016-04-02T11:24:14.576Z,180
2016-04-02T11:25:14.548Z,190
2016-04-02T11:26:14.582Z,175
2016-04-02T11:27:14.600Z,170
2016-04-02T11:28:14.634Z,170
2016-04-02T11:29:14.667Z,185
2016-04-02T11:30:14.639Z,195
2016-04-02T11:31:14.689Z,170
2016-04-02T11:32:14.691Z,170
2016-04-02T11:33:14.741Z,170
2016-04-02T11:34:14.916Z,170
2016-04-02T11:35:14.762Z,165
2016-04-02T11:36:14.797Z,170
2016-04-02T11:37:14.799Z,175
2016-04-02T11:38:14.848Z,180
2016-04-02T11:39:14.850Z,175
2016-04-02T11:40:14.885Z,160
2016-04-02T11:41:14.918Z,160
2016-04-02T11:42:14.952Z,165
2016-04-02T11:43:14.940Z,160
2016-04-02T11:44:15.020Z,155
2016-04-02T11:45:14.977Z,150
2016-04-02T11:46:15.026Z,145
2016-04-02T11:47:15.029Z,145
2016-04-02T11:48:15.078Z,145
2016-04-02T11:49:15.174Z,145
2016-04-02T11:50:15.146Z,150
2016-04-02T11:51:15.133Z,155
2016-04-02T11:52:15.183Z,160
2016-04-02T11:53:15.185Z,155
2016-04-02T11:54:15.235Z,155
2016-04-02T11:55:15.222Z,150
2016-04-02T11:56:15.256Z,150
2016-04-02T11:57:15.289Z,145
2016-04-02T11:58:15.308Z,150
2016-04-02T11:59:15.373Z,145
2016-04-02T12:00:15.344Z,145
2016-04-02T12:01:15.395Z,155
2016-04-02T12:02:15.412Z,155
2016-04-02T12:03:15.415Z,155
2016-04-02T12:04:15.511Z,155
2016-04-02T12:05:15.514Z,160
2016-04-02T12:06:15.517Z,160
2016-04-02T12:07:15.535Z,155
2016-04-02T12:08:15.538Z,150
2016-04-02T12:09:15.555Z,155
2016-04-02T12:10:15.621Z,160
2016-04-02T12:11:15.608Z,160
2016-04-02T12:12:15.674Z,160
2016-04-02T12:13:15.677Z,160
2016-04-02T12:14:15.741Z,150
2016-04-02T12:15:15.729Z,140
2016-04-02T12:16:15.732Z,140
2016-04-02T12:17:15.765Z,135
2016-04-02T12:18:15.785Z,135
2016-04-02T12:19:16.224Z,130
2016-04-02T12:20:15.852Z,130
2016-04-02T12:22:15.888Z,135
2016-04-02T12:23:15.954Z,130
2016-04-02T12:24:15.940Z,125
2016-04-02T12:25:15.787Z,120
2016-04-02T12:26:15.976Z,120
2016-04-02T12:27:15.996Z,120
2016-04-02T12:28:16.045Z,115
2016-04-02T12:29:16.032Z,110
2016-04-02T12:30:16.082Z,110
2016-04-02T12:31:16.100Z,110
2016-04-02T12:32:16.118Z,105
2016-04-02T12:33:16.183Z,105
2016-04-02T12:34:16.170Z,105
2016-04-02T12:35:16.219Z,105
2016-04-02T12:36:16.238Z,105
2016-04-02T12:37:16.256Z,105
2016-04-02T12:38:16.291Z,105
2016-04-02T12:39:16.309Z,105
2016-04-02T12:40:16.327Z,105
2016-04-02T12:41:16.346Z,100
2016-04-02T12:42:16.379Z,100
2016-04-02T12:43:16.383Z,100
2016-04-02T12:44:16.416Z,100
2016-04-02T12:45:16.466Z,100
2016-04-02T12:46:16.469Z,100
2016-04-02T12:47:16.533Z,95
2016-04-02T12:48:16.927Z,95
2016-04-02T12:49:16.399Z,95
2016-04-02T12:50:16.604Z,95
2016-04-02T12:51:16.607Z,95
2016-04-02T12:52:16.609Z,95
2016-04-02T12:53:16.660Z,95
2016-04-02T12:54:16.662Z,95
2016-04-02T12:55:16.696Z,95
2016-04-02T12:56:16.699Z,95
2016-04-02T12:57:16.732Z,95
2016-04-02T12:58:16.735Z,95
2016-04-02T12:59:16.769Z,95
2016-04-02T13:00:16.803Z,95
2016-04-02T13:01:16.805Z,95
2016-04-02T13:02:16.870Z,95
2016-04-02T13:03:16.858Z,95
2016-04-02T13:04:16.923Z,95
2016-04-02T13:05:16.911Z,95
2016-04-02T13:06:16.928Z,95
2016-04-02T13:07:16.978Z,95
2016-04-02T13:08:16.980Z,100
2016-04-02T13:09:17.030Z,100
2016-04-02T13:10:17.017Z,100
2016-04-02T13:11:17.052Z,100
2016-04-02T13:12:17.086Z,105
2016-04-02T13:13:17.119Z,105
2016-04-02T13:14:17.122Z,110
2016-04-02T13:15:17.155Z,115
2016-04-02T13:16:17.190Z,120
2016-04-02T13:17:17.254Z,120
2016-04-02T13:18:17.226Z,120
2016-04-02T13:19:17.323Z,125
2016-04-02T13:20:17.294Z,130
2016-04-02T13:21:17.282Z,145
2016-04-02T13:22:17.315Z,135
2016-04-02T13:23:17.334Z,135
2016-04-02T13:24:17.414Z,130
2016-04-02T13:25:17.385Z,130
2016-04-02T13:26:17.419Z,130
2016-04-02T13:27:17.422Z,130
2016-04-02T13:28:17.440Z,130
2016-04-02T13:29:17.506Z,130
2016-04-02T13:30:17.493Z,130
2016-04-02T13:31:17.559Z,130
2016-04-02T13:32:17.561Z,135
2016-04-02T13:33:17.611Z,135
2016-04-02T13:34:17.800Z,130
2016-04-02T13:35:17.616Z,130
2016-04-02T13:36:17.665Z,125
2016-04-02T13:37:17.668Z,125
2016-04-02T13:38:17.703Z,125
2016-04-02T13:39:17.720Z,130
2016-04-02T13:40:17.786Z,125
2016-04-02T13:41:17.788Z,125
2016-04-02T13:42:17.822Z,125
2016-04-02T13:43:17.808Z,125
2016-04-02T13:44:17.890Z,125
2016-04-02T13:45:17.861Z,125
2016-04-02T13:46:18.005Z,125
2016-04-02T13:47:17.977Z,130
2016-04-02T13:48:17.932Z,130
2016-04-02T13:49:17.950Z,125
2016-04-02T13:50:17.984Z,125
2016-04-02T13:51:17.987Z,135
2016-04-02T13:52:18.036Z,130
2016-04-02T13:53:18.054Z,130
2016-04-02T13:54:18.088Z,130
2016-04-02T13:55:18.107Z,125
2016-04-02T13:56:18.126Z,130
2016-04-02T13:57:18.159Z,130
2016-04-02T13:58:18.178Z,130
2016-04-02T13:59:18.195Z,130
2016-04-02T14:00:18.245Z,130
2016-04-02T14:01:18.245Z,130
2016-04-02T14:02:22.794Z,130
2016-04-02T14:03:18.140Z,130
2016-04-02T14:04:21.559Z,130
2016-04-02T14:05:18.348Z,125
2016-04-02T14:06:18.398Z,125
2016-04-02T14:07:18.400Z,125
2016-04-02T14:08:18.434Z,125
2016-04-02T14:09:18.436Z,125
2016-04-02T14:10:18.470Z,125
2016-04-02T14:11:18.505Z,125
2016-04-02T14:12:18.539Z,125
2016-04-02T14:13:18.542Z,125
2016-04-02T14:14:18.559Z,125
2016-04-02T14:15:18.594Z,125